Terminal Aerodrome Forecast
Issued by NWS

Home | Current Version | Previous Version | Text Only | Print | Product List | Glossary On
Versions: 1 2 3 4 5 6 7 8 9 10 11 12 13
000
FTUS46 KSEW 221100
TAFOLM
TAF
KOLM 221128Z 2212/2312 VRB03KT P6SM BKN100 BKN200
     FM221400 VRB03KT P6SM BKN060 OVC100
     FM230300 VRB03KT P6SM BKN040 OVC060=

USA.gov is the U.S. government's official web portal to all federal, state and local government web resources and services.